Blue Oak Ranch Reserve, California Weather observations

Data are for 10 minute period ending at time listed.
 Day   Time   Solar   Ave.   Ave.  Ave.  Vector  Max.   Baro.   Total    
  of    of     Rad.   Air    Rel.  Wind   Wind   Wind  Press.  Precip.   
Year   Day            Temp.  Hum.  Speed  Dir.   Gust                    
2015   (PST)  Kw/m2    F      %     mph   deg.    mph    mb.     in.     
-------------------------------------------------------------------------
 210    0:00   0.00   62.3    39    0.0     0     0.0   945.8    0.00 
 210    0:10   0.00   62.0    39    0.0     0     0.0   945.9    0.00 
 210    0:20   0.00   62.3    38    0.2   250     0.8   945.9    0.00 
 210    0:30   0.00   62.6    38    0.4   272     1.5   945.9    0.00 
 210    0:40   0.00   62.6    39    0.3   267     1.4   945.9    0.00 
 210    0:50   0.00   62.4    38    0.0     0     0.0   945.8    0.00 
 210    1:00   0.00   63.2    37    0.0   232     0.5   945.7    0.00 
 210    1:10   0.00   62.7    38    0.1    93     0.9   945.6    0.00 
 210    1:20   0.00   62.1    38    0.0    90     0.8   945.6    0.00 
 210    1:30   0.00   62.3    38    0.0     0     0.0   945.5    0.00 
 210    1:40   0.00   62.6    38    0.0   238     0.3   945.5    0.00 
 210    1:50   0.00   61.9    39    0.7    32     1.8   945.5    0.00 
 210    2:00   0.00   62.2    38    0.1   319     1.0   945.5    0.00 
 210    2:10   0.00   63.2    37    0.3   298     1.5   945.5    0.00 
 210    2:20   0.00   62.9    38    0.0     0     0.0   945.5    0.00 
 210    2:30   0.00   62.7    38    0.3   181     1.0   945.5    0.00 
 210    2:40   0.00   62.9    38    0.0     0     0.0   945.5    0.00 
 210    2:50   0.00   62.7    38    0.0     0     0.0   945.5    0.00 
 210    3:00   0.00   63.2    37    0.2   297     1.6   945.5    0.00 
 210    3:10   0.00   62.7    38    0.0    60     0.6   945.5    0.00 
 210    3:20   0.00   62.9    38    0.0     0     0.0   945.5    0.00 
 210    3:30   0.00   63.1    38    0.0     0     0.0   945.5    0.00 
 210    3:40   0.00   62.6    38    0.1    33     1.2   945.5    0.00 
 210    3:50   0.00   62.8    38    0.6    52     1.5   945.5    0.00 
 210    4:00   0.00   62.9    38    0.3    29     0.9   945.5    0.00 
 210    4:10   0.00   62.8    38    0.6   298     1.2   945.5    0.00 
 210    4:20   0.00   63.2    38    0.0   313     0.2   945.5    0.00 
 210    4:30   0.00   63.4    38    0.0     0     0.0   945.5    0.00 
 210    4:40   0.00   63.0    38    0.0    65     0.8   945.6    0.00 
 210    4:50   0.00   63.0    38    0.2    64     0.9   945.6    0.00 
 210    5:00   0.00   63.2    38    0.0     0     0.0   945.7    0.00 
 210    5:10   0.01   62.7    38    0.0    77     0.1   945.8    0.00 
 210    5:20   0.01   62.5    39    0.7   287     1.7   945.8    0.00 
 210    5:30   0.01   62.5    39    0.1    25     0.8   945.9    0.00 
 210    5:40   0.02   63.1    38    0.0     0     0.0   945.9    0.00 
 210    5:50   0.03   63.4    38    0.1   264     1.1   946.0    0.00 
 210    6:00   0.03   63.4    38    0.0     0     0.0   946.1    0.00 
 210    6:10   0.04   64.7    38    0.5    62     2.4   946.1    0.00 
 210    6:20   0.14   66.0    37    2.0    64     3.0   946.2    0.00 
 210    6:30   0.17   67.0    36    0.6   330     1.5   946.2    0.00 
 210    6:40   0.20   70.5    32    0.3   296     0.9   946.2    0.00 
 210    6:50   0.23   75.8    27    0.4   317     0.9   946.4    0.00 
 210    7:00   0.26   80.0    24    0.1   282     0.9   946.7    0.00 
 210    7:10   0.29   80.8    25    0.7   284     1.2   946.9    0.00 
 210    7:20   0.33   84.1    22    0.1    28     0.7   947.1    0.00 
 210    7:30   0.36   87.1    22    0.3   110     1.5   947.2    0.00 
 210    7:40   0.39   87.6    20    1.8   242     4.2   947.3    0.00 
 210    7:50   0.43   86.6    19    2.8   232     4.2   947.3    0.00 
 210    8:00   0.46   86.7    18    3.0   240     4.6   947.2    0.00 
 210    8:10   0.49   87.1    18    2.9   243     4.4   947.2    0.00 
 210    8:20   0.52   87.6    18    3.6   239     6.1   947.2    0.00 
 210    8:30   0.55   88.0    18    3.5   248     6.4   947.1    0.00 
 210    8:40   0.58   88.2    18    3.3   247     5.5   947.1    0.00 
 210    8:50   0.61   89.0    18    3.3   241     5.9   947.0    0.00 
 210    9:00   0.63   89.0    19    3.7   231     5.8   946.9    0.00 
 210    9:10   0.66   88.8    20    4.7   232     6.8   946.9    0.00 
 210    9:20   0.69   88.4    21    5.4   230     7.5   946.9    0.00 
 210    9:30   0.71   88.5    22    5.7   229     8.3   946.9    0.00 
 210    9:40   0.73   88.4    23    6.5   234     9.3   947.0    0.00 
 210    9:50   0.75   87.5    24    5.2   232     8.3   947.1    0.00 
 210   10:00   0.77   87.5    25    5.2   228     7.7   947.1    0.00 
 210   10:10   0.80   88.2    24    5.6   236     9.1   947.1    0.00 
 210   10:20   0.81   88.8    25    5.1   241     9.3   947.1    0.00 
 210   10:30   0.83   87.7    27    6.3   243    12.4   947.2    0.00 
 210   10:40   0.85   88.6    28    5.7   242    10.4   947.2    0.00 
 210   10:50   0.86   88.7    28    4.6   236     9.2   947.2    0.00 
 210   11:00   0.87   89.2    27    5.9   245     9.9   947.2    0.00 
 210   11:10   0.88   90.2    26    6.5   252    10.2   947.2    0.00 
 210   11:20   0.89   90.7    26    5.8   252     9.4   947.2    0.00 
 210   11:30   0.90   91.3    25    6.3   250    10.4   947.2    0.00 
 210   11:40   0.90   91.2    25    6.4   248    10.3   947.2    0.00 
 210   11:50   0.90   90.8    25    6.1   257    10.6   947.2    0.00 
 210   12:00   0.91   91.0    25    5.9   252     9.9   947.2    0.00 
 210   12:10   0.91   91.9    24    6.1   244    10.3   947.1    0.00 
 210   12:20   0.92   92.0    25    6.9   237    10.9   947.1    0.00 
 210   12:30   0.92   91.2    25    6.2   246    10.1   947.0    0.00 
 210   12:40   0.91   91.8    24    6.6   242    11.2   947.1    0.00 
 210   12:50   0.91   91.9    24    6.8   253    10.2   947.1    0.00 
 210   13:00   0.88   92.1    23    6.0   249    10.7   947.1    0.00 
 210   13:10   0.90   92.3    23    6.7   241    10.2   947.1    0.00 
 210   13:20   0.89   92.8    23    6.5   242    11.2   947.1    0.00 
 210   13:30   0.88   92.8    25    6.7   243    11.3   947.2    0.00 
 210   13:40   0.87   93.0    24    7.5   241    11.7   947.2    0.00 
 210   13:50   0.86   93.6    23    7.0   260    10.2   947.2    0.00 
 210   14:00   0.84   94.4    22    6.4   258    11.0   947.2    0.00 
 210   14:10   0.83   94.6    21    6.6   247    10.8   947.2    0.00 
 210   14:20   0.81   94.6    21    6.3   240    12.3   947.2    0.00 
 210   14:30   0.80   95.6    20    6.4   253    11.8   947.2    0.00 
 210   14:40   0.78   95.2    20    6.7   255    12.1   947.2    0.00 
 210   14:50   0.75   95.2    20    7.3   258    12.9   947.1    0.00 
 210   15:00   0.73   93.6    22    6.3   254    10.9   947.0    0.00 
 210   15:10   0.71   93.7    22    5.7   236    10.4   946.9    0.00 
 210   15:20   0.68   94.1    22    5.6   247    12.0   946.7    0.00 
 210   15:30   0.65   93.2    23    6.8   238    12.1   946.6    0.00 
 210   15:40   0.63   92.4    24    5.9   253    10.3   946.5    0.00 
 210   15:50   0.60   92.2    25    6.9   256    13.4   946.5    0.00 
 210   16:00   0.57   92.1    25    6.5   262    12.5   946.5    0.00 
 210   16:10   0.54   91.6    25    6.5   250    11.1   946.5    0.00 
 210   16:20   0.51   91.0    26    6.6   257    10.2   946.5    0.00 
 210   16:30   0.48   90.6    26    5.5   241    10.4   946.5    0.00 
 210   16:40   0.45   90.4    26    5.4   264    11.6   946.5    0.00 
 210   16:50   0.42   90.5    26    5.6   252    10.2   946.5    0.00 
 210   17:00   0.39   89.8    26    5.6   258     9.6   946.4    0.00 
 210   17:10   0.35   89.8    26    5.1   248    10.4   946.4    0.00 
 210   17:20   0.32   89.5    25    5.7   254     9.5   946.5    0.00 
 210   17:30   0.29   88.6    27    5.9   262     9.6   946.6    0.00 
 210   17:40   0.26   87.8    28    4.6   260     8.6   946.6    0.00 
 210   17:50   0.23   87.2    29    3.0   276     6.1   946.6    0.00 
 210   18:00   0.19   87.1    29    2.6   260     5.6   946.6    0.00 
 210   18:10   0.16   86.1    29    2.3   260     5.0   946.7    0.00 
 210   18:20   0.14   86.3    29    3.0   271     6.0   946.8    0.00 
 210   18:30   0.11   85.1    30    1.9   253     3.9   946.9    0.00 
 210   18:40   0.08   84.1    31    2.2   250     4.5   947.0    0.00 
 210   18:50   0.06   82.8    32    1.4   253     3.8   947.1    0.00 
 210   19:00   0.04   80.2    34    1.1   264     1.9   947.3    0.00 
 210   19:10   0.01   78.0    37    2.5   290     4.3   947.3    0.00 
 210   19:20   0.01   75.9    39    2.5   270     4.7   947.4    0.00 
 210   19:30   0.00   74.1    41    1.0   285     3.7   947.5    0.00 
 210   19:40   0.00   72.5    42    0.6    22     1.8   947.6    0.00 
 210   19:50   0.00   71.3    42    1.0    50     2.0   947.5    0.00 
 210   20:00   0.00   70.1    44    0.3   341     1.5   947.6    0.00 
 210   20:10   0.00   69.5    45    0.0   112     0.7   947.7    0.00 
 210   20:20   0.00   68.9    46    0.3    34     1.3   947.8    0.00 
 210   20:30   0.00   68.6    45    0.1    36     1.0   947.9    0.00 
 210   20:40   0.00   67.8    46    1.2    38     1.8   947.9    0.00 
 210   20:50   0.00   67.1    47    0.5   304     1.3   947.9    0.00 
 210   21:00   0.00   66.5    48    0.6   278     1.5   947.9    0.00 
 210   21:10   0.00   66.2    49    0.4   280     1.8   947.9    0.00 
 210   21:20   0.00   65.9    50    0.7   291     2.1   948.0    0.00 
 210   21:30   0.00   65.6    50    0.2    55     1.3   948.0    0.00 
 210   21:40   0.00   65.3    50    0.0   154     0.5   947.9    0.00 
 210   21:50   0.00   64.7    51    0.6   287     2.0   947.9    0.00 
 210   22:00   0.00   64.7    52    0.0   277     0.5   947.8    0.00 
 210   22:10   0.00   64.6    52    0.8   299     2.2   947.7    0.00 
 210   22:20   0.00   64.1    53    0.3   276     1.3   947.7    0.00 
 210   22:30   0.00   64.0    52    0.4    30     1.0   947.8    0.00 
 210   22:40   0.00   63.6    52    0.9    38     2.0   947.8    0.00 
 210   22:50   0.00   63.5    52    1.0   298     1.9   947.7    0.00 
 210   23:00   0.00   64.0    50    2.1   306     4.2   947.8    0.00 
 210   23:10   0.00   63.6    49    1.5    55     2.5   947.9    0.00 
 210   23:20   0.00   63.4    50    0.1    69     1.7   947.9    0.00 
 210   23:30   0.00   63.0    50    0.0     0     0.0   947.9    0.00 
 210   23:40   0.00   62.7    52    1.0   290     2.4   947.9    0.00 
 210   23:50   0.00   62.9    52    0.9   288     3.3   947.9    0.00 

Return to Blue Oak Ranch Reserve graphs page.


Western Regional Climate Center,wrcc@dri.edu